Time;durP1;ratioP1;P1;durP2;ratioP2;P2;SDS_P1;SDS_P2;PMS_P1;PMS_P2;Temp;Humidity;BMP_temperature;BMP_pressure;BME280_temperature;BME280_humidity;BME280_pressure;Samples;Min_cycle;Max_cycle;Signal;HPM_P1;HPM_P2
2023/01/16 00:01:10;;;;;;;4.35;0.98;;;6.00;1.00;;;;;;4862642;29;20211;-85
2023/01/16 00:03:36;;;;;;;4.15;1.50;;;5.90;99.90;;;;;;4855802;29;20227;-85
2023/01/16 00:06:02;;;;;;;6.73;1.27;;;5.90;99.90;;;;;;4862736;29;20774;-85
2023/01/16 00:09:18;;;;;;;3.58;1.23;;;5.90;1.00;;;;;;4864365;29;20203;-86
2023/01/16 00:12:00;;;;;;;4.32;1.40;;;5.90;1.00;;;;;;4862645;29;20282;-86
2023/01/16 00:14:29;;;;;;;5.97;1.10;;;5.90;99.90;;;;;;4863237;29;20697;-87
2023/01/16 00:17:30;;;;;;;3.90;1.50;;;5.90;99.90;;;;;;4863413;29;20199;-85
2023/01/16 00:19:59;;;;;;;2.50;1.10;;;5.90;99.90;;;;;;4862281;29;20220;-86
2023/01/16 00:25:24;;;;;;;7.22;1.60;;;6.00;1.00;;;;;;4876717;29;20192;-86
2023/01/16 00:30:42;;;;;;;5.15;1.58;;;6.00;99.90;;;;;;4869692;29;20263;-85
2023/01/16 00:33:16;;;;;;;4.35;1.40;;;5.90;99.90;;;;;;4860474;29;20187;-86
2023/01/16 00:35:41;;;;;;;4.32;1.52;;;5.90;99.90;;;;;;4861692;29;20279;-86
2023/01/16 00:38:27;;;;;;;4.23;1.40;;;5.90;99.90;;;;;;4861705;29;20650;-85
2023/01/16 00:40:53;;;;;;;3.83;1.38;;;5.90;99.90;;;;;;4876687;29;20230;-86
2023/01/16 00:43:54;;;;;;;4.20;1.10;;;5.80;99.90;;;;;;4862201;29;20207;-85
2023/01/16 00:46:35;;;;;;;3.55;1.10;;;5.90;1.00;;;;;;4872785;29;20283;-86
2023/01/16 00:49:23;;;;;;;5.43;1.10;;;5.90;1.00;;;;;;4861491;29;20219;-85
2023/01/16 00:51:56;;;;;;;3.17;1.35;;;5.90;1.00;;;;;;4860381;29;20195;-85
2023/01/16 00:57:29;;;;;;;3.75;1.45;;;6.00;1.00;;;;;;4873413;29;20183;-85
2023/01/16 01:00:32;;;;;;;5.78;1.75;;;6.00;1.00;;;;;;4877448;29;20615;-85
2023/01/16 01:06:43;;;;;;;4.75;1.33;;;6.10;99.90;;;;;;4876908;29;20247;-85
2023/01/16 01:12:33;;;;;;;5.78;1.30;;;6.10;99.90;;;;;;4847844;29;20206;-85
2023/01/16 01:15:19;;;;;;;3.47;1.67;;;6.10;82.60;;;;;;4864511;29;20538;-85
2023/01/16 01:21:29;;;;;;;5.05;1.33;;;6.00;22.20;;;;;;4852996;29;20219;-86
2023/01/16 01:26:46;;;;;;;4.85;1.20;;;6.00;38.80;;;;;;4873633;29;20200;-85
2023/01/16 01:29:23;;;;;;;5.63;1.30;;;6.00;51.00;;;;;;4859600;29;20286;-86
2023/01/16 01:32:14;;;;;;;3.83;1.40;;;6.00;72.60;;;;;;4863983;29;20195;-85
2023/01/16 01:35:09;;;;;;;;;;;;;;;;;;;;;
2023/01/16 01:38:26;;;;;;;3.72;1.20;;;6.00;35.30;;;;;;4880677;29;20188;-85
2023/01/16 01:41:24;;;;;;;4.20;1.20;;;5.90;56.30;;;;;;4861198;29;20207;-85
2023/01/16 01:47:06;;;;;;;2.00;1.20;;;5.80;99.90;;;;;;4881078;29;20283;-85
2023/01/16 01:49:47;;;;;;;3.15;1.20;;;5.80;99.90;;;;;;4883052;29;20204;-85
2023/01/16 01:54:53;;;;;;;5.20;1.67;;;5.70;1.00;;;;;;4882008;29;20191;-86
2023/01/16 01:58:06;;;;;;;3.92;1.23;;;5.70;1.00;;;;;;4883434;29;20282;-85
2023/01/16 02:01:04;;;;;;;8.95;1.90;;;5.70;1.00;;;;;;4863741;29;20211;-85
2023/01/16 02:04:34;;;;;;;8.45;1.98;;;5.70;14.10;;;;;;4865868;29;20587;-86
2023/01/16 02:07:15;;;;;;;6.43;1.67;;;5.70;3.90;;;;;;4862821;29;20219;-87
2023/01/16 02:10:00;;;;;;;;;;;;;;;;;;;;;
2023/01/16 02:12:29;;;;;;;6.97;2.40;;;5.60;1.00;;;;;;4877127;29;20191;-86
2023/01/16 02:15:07;;;;;;;2.92;1.02;;;5.50;1.00;;;;;;4880555;29;20283;-87
2023/01/16 02:20:23;;;;;;;2.15;1.20;;;5.40;99.90;;;;;;4883583;29;20260;-86
2023/01/16 02:23:10;;;;;;;3.80;1.48;;;5.30;99.90;;;;;;4865704;29;20236;-85
2023/01/16 02:31:39;;;;;;;3.30;1.27;;;5.20;1.00;;;;;;4957997;23;20251;-85
2023/01/16 02:34:22;;;;;;;2.43;1.00;;;5.10;1.00;;;;;;4901911;29;20189;-86
2023/01/16 02:37:30;;;;;;;2.00;1.00;;;5.10;1.00;;;;;;4882458;29;20214;-85
2023/01/16 02:40:21;;;;;;;8.13;1.27;;;5.00;10.10;;;;;;4878103;29;20219;-86
2023/01/16 02:43:25;;;;;;;5.15;1.40;;;5.00;22.00;;;;;;4874768;29;20223;-85
2023/01/16 02:46:57;;;;;;;2.45;1.02;;;4.90;35.00;;;;;;4880235;29;20191;-85
2023/01/16 02:49:58;;;;;;;3.60;1.17;;;4.90;99.90;;;;;;4772925;29;20282;-85
2023/01/16 02:52:31;;;;;;;2.10;1.20;;;4.90;99.90;;;;;;4773990;30;20327;-85
2023/01/16 02:56:02;;;;;;;3.50;1.33;;;4.90;99.90;;;;;;4859662;29;20204;-85
2023/01/16 02:59:00;;;;;;;;;;;;;;;;;;;;;
2023/01/16 03:01:36;;;;;;;3.28;0.90;;;4.90;99.90;;;;;;4886255;29;20292;-86
2023/01/16 03:05:12;;;;;;;9.70;1.40;;;4.90;1.00;;;;;;4879413;29;20203;-86
2023/01/16 03:08:34;;;;;;;2.55;0.80;;;5.00;1.00;;;;;;4863504;29;20199;-87
2023/01/16 03:11:43;;;;;;;3.83;1.08;;;5.10;1.00;;;;;;4904293;23;20234;-86
2023/01/16 03:14:53;;;;;;;2.10;0.60;;;5.10;99.90;;;;;;4874587;29;20196;-86
2023/01/16 03:17:46;;;;;;;1.20;0.80;;;5.10;99.90;;;;;;4847616;29;20210;-85
2023/01/16 03:20:54;;;;;;;3.55;1.42;;;5.10;99.90;;;;;;4844438;29;20220;-85
2023/01/16 03:26:48;;;;;;;1.85;0.80;;;5.10;99.90;;;;;;4813274;29;20635;-86
2023/01/16 03:29:49;;;;;;;5.22;1.33;;;5.10;99.90;;;;;;4862454;29;20296;-85
2023/01/16 03:32:34;;;;;;;2.15;1.10;;;5.10;99.90;;;;;;4847605;29;20192;-85
2023/01/16 03:35:13;;;;;;;3.25;0.90;;;5.10;99.90;;;;;;4866229;29;20662;-86
2023/01/16 03:38:17;;;;;;;3.00;1.20;;;5.10;99.90;;;;;;4846707;29;20196;-86
2023/01/16 03:41:26;;;;;;;3.42;1.13;;;5.10;99.90;;;;;;4847084;29;20220;-87
2023/01/16 03:44:09;;;;;;;5.90;1.25;;;5.10;99.90;;;;;;4872023;29;20230;-86
2023/01/16 03:46:58;;;;;;;3.45;1.00;;;5.10;99.90;;;;;;4864046;29;20259;-85
2023/01/16 03:50:11;;;;;;;2.28;0.90;;;5.10;99.90;;;;;;4864205;29;20189;-85
2023/01/16 03:53:01;;;;;;;4.93;1.00;;;5.00;99.90;;;;;;4833886;29;20248;-85
2023/01/16 03:56:23;;;;;;;3.72;1.10;;;4.90;99.90;;;;;;4851898;29;20201;-86
2023/01/16 03:59:14;;;;;;;3.10;1.10;;;4.90;99.90;;;;;;4816713;29;20211;-85
2023/01/16 04:02:26;;;;;;;1.13;0.80;;;4.80;99.90;;;;;;4846608;29;20195;-85
2023/01/16 04:05:36;;;;;;;4.90;0.90;;;4.80;1.00;;;;;;4865317;29;20180;-86
2023/01/16 04:08:17;;;;;;;2.85;0.90;;;4.70;1.00;;;;;;4807959;29;21338;-85
2023/01/16 04:10:52;;;;;;;2.03;0.77;;;4.70;1.00;;;;;;4866949;29;20227;-85
2023/01/16 04:13:53;;;;;;;5.00;1.00;;;4.80;1.00;;;;;;4848322;29;20196;-85
2023/01/16 04:16:32;;;;;;;3.50;1.20;;;4.80;1.00;;;;;;4810950;29;20197;-85
2023/01/16 04:18:59;;;;;;;2.75;0.85;;;4.80;1.00;;;;;;4845240;29;20196;-85
2023/01/16 04:21:47;;;;;;;3.22;0.98;;;4.80;1.00;;;;;;4844858;29;20216;-86
2023/01/16 04:24:51;;;;;;;;;;;;;;;;;;;;;
2023/01/16 04:28:06;;;;;;;2.20;1.02;;;4.80;1.00;;;;;;4866981;29;20275;-85
2023/01/16 04:30:38;;;;;;;1.17;1.00;;;4.80;1.00;;;;;;4845407;29;20315;-86
2023/01/16 04:33:22;;;;;;;2.40;0.80;;;4.80;1.00;;;;;;4846249;29;20184;-86
2023/01/16 04:36:24;;;;;;;2.65;0.80;;;4.80;1.00;;;;;;4842031;29;20223;-85
2023/01/16 04:39:05;;;;;;;1.20;0.82;;;4.80;1.00;;;;;;4818582;29;20621;-85
2023/01/16 04:45:00;;;;;;;1.27;0.80;;;4.70;28.50;;;;;;4859079;29;20208;-85
2023/01/16 04:47:50;;;;;;;1.55;0.70;;;4.70;93.20;;;;;;4837429;29;20189;-85
2023/01/16 04:50:46;;;;;;;1.20;0.70;;;4.70;99.90;;;;;;4860651;29;20224;-86
2023/01/16 04:53:45;;;;;;;1.30;1.13;;;4.70;99.90;;;;;;4855127;29;20188;-85
2023/01/16 04:56:38;;;;;;;1.80;1.20;;;4.80;99.90;;;;;;4865035;29;20198;-85
2023/01/16 04:59:04;;;;;;;5.95;0.98;;;4.90;99.90;;;;;;4848199;29;20227;-85
2023/01/16 05:01:36;;;;;;;1.17;0.80;;;4.90;99.90;;;;;;4845231;29;20208;-85
2023/01/16 05:04:09;;;;;;;2.17;1.10;;;4.90;99.90;;;;;;4864616;29;20462;-87
2023/01/16 05:07:16;;;;;;;1.85;1.10;;;5.00;99.90;;;;;;4854751;29;20275;-86
2023/01/16 05:09:50;;;;;;;2.45;1.10;;;5.00;99.90;;;;;;4836217;29;20224;-86
2023/01/16 05:12:15;;;;;;;5.95;0.98;;;5.00;99.90;;;;;;4840708;29;20240;-86
2023/01/16 05:14:44;;;;;;;3.63;1.27;;;5.00;98.70;;;;;;4852313;29;20270;-85
2023/01/16 05:17:26;;;;;;;3.20;1.60;;;5.10;46.70;;;;;;4860804;29;20275;-86
2023/01/16 05:30:30;;;;;;;;;;;;;;;;;;;;;
2023/01/16 05:32:56;;;;;;;5.00;0.93;;;5.20;1.00;;;;;;4865994;29;20212;-85
2023/01/16 05:35:22;;;;;;;2.00;0.80;;;5.20;1.00;;;;;;4841940;29;20287;-86
2023/01/16 05:37:48;;;;;;;1.97;0.90;;;5.20;1.00;;;;;;4863763;29;20509;-86
2023/01/16 05:40:43;;;;;;;2.80;1.03;;;5.20;1.00;;;;;;4866557;29;20211;-85
2023/01/16 05:46:39;;;;;;;;;;;;;;;;;;;;;
2023/01/16 06:05:06;;;;;;;2.47;0.93;;;5.40;1.00;;;;;;4720249;23;20862;-85
2023/01/16 06:07:44;;;;;;;1.77;0.88;;;5.40;1.00;;;;;;4880986;29;20211;-86
2023/01/16 06:10:23;;;;;;;;;;;;;;;;;;;;;
2023/01/16 06:12:49;;;;;;;2.00;0.95;;;5.50;1.00;;;;;;4886126;29;20191;-85
2023/01/16 06:15:32;;;;;;;1.90;1.00;;;5.50;1.00;;;;;;4868576;29;20255;-85
2023/01/16 06:18:52;;;;;;;1.88;0.88;;;5.50;1.00;;;;;;4867942;29;20446;-86
2023/01/16 06:26:28;;;;;;;2.45;0.85;;;5.60;1.00;;;;;;5337052;23;20758;-86
2023/01/16 06:28:55;;;;;;;3.70;1.10;;;5.60;99.90;;;;;;4872129;29;20179;-86
2023/01/16 06:31:21;;;;;;;1.58;0.80;;;5.60;99.90;;;;;;4864887;29;20286;-86
2023/01/16 06:33:47;;;;;;;2.90;1.20;;;5.60;99.90;;;;;;4879603;29;20200;-86
2023/01/16 06:36:12;;;;;;;1.57;1.17;;;5.70;99.90;;;;;;4862287;29;20468;-86
2023/01/16 06:38:38;;;;;;;2.33;1.10;;;5.70;99.90;;;;;;4864598;29;20192;-85
2023/01/16 06:41:04;;;;;;;1.20;0.83;;;5.70;99.90;;;;;;4881935;29;20389;-86
2023/01/16 06:43:29;;;;;;;4.10;1.70;;;5.70;99.90;;;;;;4881170;29;20219;-86
2023/01/16 06:45:55;;;;;;;2.40;1.03;;;5.80;32.30;;;;;;4881067;29;20187;-86
2023/01/16 06:48:21;;;;;;;1.43;1.23;;;5.80;18.10;;;;;;4883990;29;20274;-85
2023/01/16 06:50:47;;;;;;;1.87;1.10;;;5.80;1.00;;;;;;4862695;29;20513;-85
2023/01/16 06:53:13;;;;;;;2.70;1.03;;;5.90;1.00;;;;;;4861578;29;20192;-86
2023/01/16 06:55:40;;;;;;;2.07;0.83;;;5.90;1.00;;;;;;4861941;29;20455;-86
2023/01/16 06:58:07;;;;;;;1.73;0.80;;;5.90;1.00;;;;;;4863840;29;20448;-86
2023/01/16 07:00:36;;;;;;;2.70;0.98;;;5.90;99.90;;;;;;4880846;29;20211;-86
2023/01/16 07:03:03;;;;;;;3.05;1.48;;;6.00;99.90;;;;;;4883360;29;20293;-86
2023/01/16 07:05:30;;;;;;;3.55;1.30;;;6.00;99.90;;;;;;4880246;29;20828;-86
2023/01/16 07:07:58;;;;;;;1.92;1.15;;;6.00;99.90;;;;;;4865103;29;20234;-86
2023/01/16 07:10:38;;;;;;;4.55;1.15;;;6.00;99.90;;;;;;4862563;29;20202;-86
2023/01/16 07:13:28;;;;;;;;;;;;;;;;;;;;;
2023/01/16 07:24:31;;;;;;;6.22;1.35;;;5.80;1.00;;;;;;4891042;29;20190;-86
2023/01/16 07:27:02;;;;;;;3.25;1.30;;;5.80;99.90;;;;;;4870165;29;20863;-84
2023/01/16 07:29:29;;;;;;;6.13;2.33;;;5.70;99.90;;;;;;4884800;29;20187;-85
2023/01/16 07:31:56;;;;;;;2.15;1.30;;;5.80;70.10;;;;;;4870579;29;20199;-84
2023/01/16 07:34:22;;;;;;;6.90;1.42;;;5.90;1.00;;;;;;4886110;29;20183;-83
2023/01/16 07:36:47;;;;;;;7.13;2.87;;;5.90;1.00;;;;;;4882583;29;20214;-85
2023/01/16 07:39:13;;;;;;;3.70;1.80;;;6.00;1.00;;;;;;4883087;29;20180;-84
2023/01/16 07:41:38;;;;;;;4.73;2.00;;;6.00;1.00;;;;;;4881949;29;20927;-83
2023/01/16 07:44:05;;;;;;;6.30;2.10;;;6.00;99.90;;;;;;4863060;29;20559;-83
2023/01/16 07:46:31;;;;;;;2.63;2.05;;;6.00;99.90;;;;;;4887383;29;20190;-83
2023/01/16 07:48:57;;;;;;;9.27;2.13;;;5.90;99.90;;;;;;4900719;29;20590;-83
2023/01/16 07:51:23;;;;;;;5.20;2.10;;;5.90;99.90;;;;;;4899631;29;20203;-84
2023/01/16 07:53:48;;;;;;;4.27;2.00;;;5.90;99.90;;;;;;4892100;29;20255;-85
2023/01/16 07:56:14;;;;;;;5.53;2.20;;;5.90;99.90;;;;;;4866069;29;20432;-82
2023/01/16 07:58:42;;;;;;;3.97;2.00;;;5.90;99.90;;;;;;4880943;29;20279;-83
2023/01/16 08:01:08;;;;;;;3.60;2.47;;;5.90;99.90;;;;;;4875577;29;20334;-82
2023/01/16 08:03:34;;;;;;;3.00;1.37;;;5.90;99.90;;;;;;4861768;29;20719;-83
2023/01/16 08:05:59;;;;;;;5.80;2.17;;;5.90;99.90;;;;;;4880075;29;20416;-83
2023/01/16 08:08:26;;;;;;;4.70;2.10;;;5.90;99.90;;;;;;4881263;29;20195;-83
2023/01/16 08:10:59;;;;;;;7.55;3.28;;;5.90;99.90;;;;;;4879792;29;20227;-83
2023/01/16 08:13:26;;;;;;;5.15;1.85;;;5.90;99.90;;;;;;4881008;29;20180;-83
2023/01/16 08:15:51;;;;;;;3.47;2.55;;;5.90;99.90;;;;;;4877510;29;20232;-83
2023/01/16 08:18:18;;;;;;;7.53;1.67;;;5.90;99.90;;;;;;4879119;29;20184;-81
2023/01/16 08:20:44;;;;;;;5.10;1.60;;;5.90;99.90;;;;;;4880798;29;20686;-83
2023/01/16 08:23:11;;;;;;;9.48;2.42;;;5.90;99.90;;;;;;4890207;29;20211;-83
2023/01/16 08:25:37;;;;;;;3.97;2.22;;;5.90;99.90;;;;;;4892666;29;20215;-83
2023/01/16 08:28:03;;;;;;;3.43;2.50;;;5.80;99.90;;;;;;4893530;29;20188;-82
2023/01/16 08:30:28;;;;;;;5.57;2.58;;;5.80;99.90;;;;;;4877999;29;20450;-83
2023/01/16 08:33:01;;;;;;;6.03;2.30;;;5.80;1.00;;;;;;4894426;29;20200;-82
2023/01/16 08:35:27;;;;;;;3.40;2.17;;;5.70;1.00;;;;;;4886645;29;20635;-83
2023/01/16 08:37:53;;;;;;;2.57;2.03;;;5.70;1.00;;;;;;4900663;29;20183;-84
2023/01/16 08:40:19;;;;;;;4.27;1.97;;;5.70;1.00;;;;;;4900375;29;20443;-83
2023/01/16 08:51:23;;;;;;;12.43;2.10;;;5.70;1.00;;;;;;4883547;29;20346;-83
2023/01/16 08:53:50;;;;;;;2.60;1.38;;;5.70;1.00;;;;;;4880690;29;20217;-84
2023/01/16 08:56:16;;;;;;;2.55;1.40;;;5.70;1.00;;;;;;4866824;29;20255;-84
2023/01/16 08:58:41;;;;;;;6.50;1.53;;;5.70;1.00;;;;;;4881098;29;20890;-85
2023/01/16 09:01:07;;;;;;;5.10;1.30;;;5.70;1.00;;;;;;4865844;29;20218;-83
2023/01/16 09:03:34;;;;;;;3.93;2.80;;;5.80;99.90;;;;;;4875450;29;20219;-84
2023/01/16 09:05:59;;;;;;;1.23;0.98;;;5.80;99.90;;;;;;4881793;29;20176;-84
2023/01/16 09:08:28;;;;;;;3.30;1.07;;;5.80;99.90;;;;;;4862239;29;20523;-85
2023/01/16 09:13:49;;;;;;;2.92;1.27;;;5.90;99.90;;;;;;4879662;29;20264;-84
2023/01/16 09:16:23;;;;;;;2.47;0.90;;;5.90;99.90;;;;;;4882557;29;20183;-84
2023/01/16 09:18:50;;;;;;;1.52;0.80;;;5.90;99.90;;;;;;4867033;29;20199;-84
2023/01/16 09:21:18;;;;;;;1.30;0.85;;;6.00;99.90;;;;;;4882768;29;20214;-84
2023/01/16 09:23:44;;;;;;;2.92;1.20;;;6.00;99.90;;;;;;4883319;29;20215;-85
2023/01/16 09:26:09;;;;;;;1.80;1.13;;;6.00;99.90;;;;;;4879428;29;20611;-85
2023/01/16 09:28:35;;;;;;;1.90;1.10;;;6.00;57.70;;;;;;4883143;29;20223;-85
2023/01/16 09:31:00;;;;;;;2.47;1.50;;;6.10;24.30;;;;;;4879916;29;20211;-84
2023/01/16 09:33:26;;;;;;;2.93;1.00;;;6.10;1.00;;;;;;4883359;29;20205;-84
2023/01/16 09:35:51;;;;;;;4.90;1.47;;;6.10;1.00;;;;;;4871010;29;20286;-84
2023/01/16 09:38:17;;;;;;;1.80;1.17;;;6.10;1.00;;;;;;4885878;29;20195;-84
2023/01/16 09:40:50;;;;;;;3.30;1.10;;;6.10;1.00;;;;;;4869889;29;20215;-84
2023/01/16 09:43:39;;;;;;;1.10;0.70;;;6.10;99.90;;;;;;4880307;29;20220;-84
2023/01/16 09:46:16;;;;;;;2.42;0.70;;;6.10;99.90;;;;;;4884505;29;20188;-85
2023/01/16 09:48:56;;;;;;;1.38;0.63;;;6.10;99.90;;;;;;4868889;29;20309;-84
2023/01/16 09:51:26;;;;;;;1.23;0.85;;;6.10;99.90;;;;;;4896079;29;20199;-84
2023/01/16 09:59:46;;;;;;;1.55;1.00;;;6.30;1.00;;;;;;4883033;29;20261;-85
2023/01/16 10:02:23;;;;;;;4.60;0.70;;;6.30;99.90;;;;;;4883553;29;20290;-84
2023/01/16 10:04:50;;;;;;;1.90;0.70;;;6.40;99.90;;;;;;4887189;29;20182;-84
2023/01/16 10:07:47;;;;;;;1.00;0.70;;;6.40;1.00;;;;;;4885289;29;20193;-84
2023/01/16 10:10:40;;;;;;;5.20;1.00;;;6.50;1.00;;;;;;4878619;29;20215;-84
2023/01/16 10:13:33;;;;;;;1.40;1.00;;;6.60;99.90;;;;;;4886655;29;20215;-84
2023/01/16 10:16:14;;;;;;;1.30;0.73;;;6.60;99.90;;;;;;4879678;29;20192;-85
2023/01/16 10:19:00;;;;;;;0.90;0.60;;;6.70;99.90;;;;;;4886421;29;20180;-84
2023/01/16 10:21:51;;;;;;;3.80;1.10;;;6.80;99.90;;;;;;4867848;29;20227;-85
2023/01/16 10:24:26;;;;;;;2.65;0.90;;;6.90;99.90;;;;;;4872598;29;20212;-85
2023/01/16 10:26:58;;;;;;;1.27;0.70;;;7.00;37.80;;;;;;4880841;29;20664;-85
2023/01/16 10:29:47;;;;;;;1.15;0.85;;;7.20;99.90;;;;;;4865407;29;20195;-85
2023/01/16 10:32:30;;;;;;;1.02;0.70;;;7.40;1.00;;;;;;4877959;29;20722;-85
2023/01/16 10:35:03;;;;;;;1.20;0.63;;;7.50;99.90;;;;;;4882881;29;20195;-85
2023/01/16 10:37:29;;;;;;;1.27;1.02;;;7.60;99.90;;;;;;4881034;29;20684;-85
2023/01/16 10:39:58;;;;;;;1.70;0.80;;;7.70;99.90;;;;;;4865329;29;20238;-86
2023/01/16 10:50:57;;;;;;;1.00;0.60;;;8.00;99.90;;;;;;4868394;29;20611;-85
2023/01/16 10:53:22;;;;;;;1.97;0.70;;;8.00;99.90;;;;;;4874736;29;20653;-85
2023/01/16 10:55:51;;;;;;;0.93;0.60;;;8.10;99.90;;;;;;4876383;29;20523;-85
2023/01/16 11:02:03;;;;;;;1.23;0.70;;;8.00;99.90;;;;;;4876955;29;20523;-85
2023/01/16 11:04:34;;;;;;;1.03;0.80;;;8.10;99.90;;;;;;4852914;29;20319;-85
2023/01/16 11:07:18;;;;;;;1.30;0.70;;;8.10;99.90;;;;;;4880413;29;20512;-85
2023/01/16 11:09:47;;;;;;;1.07;0.67;;;8.20;99.90;;;;;;4864957;29;20471;-85
2023/01/16 11:18:28;;;;;;;0.90;0.60;;;8.70;99.90;;;;;;4881771;29;20427;-85
2023/01/16 11:20:54;;;;;;;0.90;0.50;;;8.70;99.90;;;;;;4879916;29;21004;-84
2023/01/16 11:23:24;;;;;;;1.37;0.70;;;8.60;99.90;;;;;;4865793;29;20517;-85
2023/01/16 11:25:53;;;;;;;2.40;0.70;;;8.40;99.90;;;;;;4882187;29;20474;-85
2023/01/16 11:28:27;;;;;;;1.83;0.50;;;8.20;99.90;;;;;;4879011;29;20487;-85
2023/01/16 11:30:57;;;;;;;1.10;0.65;;;8.10;99.90;;;;;;4878807;29;20459;-85
2023/01/16 11:33:27;;;;;;;2.40;0.93;;;7.90;99.90;;;;;;4859048;29;20200;-85
2023/01/16 11:35:57;;;;;;;3.57;1.07;;;7.80;1.00;;;;;;4863135;29;20439;-86
2023/01/16 11:38:27;;;;;;;1.60;0.73;;;7.70;1.00;;;;;;4865253;29;20435;-85
2023/01/16 11:41:12;;;;;;;0.90;0.60;;;7.80;1.00;;;;;;4879997;29;20207;-86
2023/01/16 11:46:29;;;;;;;2.45;1.15;;;7.80;1.00;;;;;;4878771;29;20479;-85
2023/01/16 11:51:42;;;;;;;1.25;0.70;;;7.80;1.00;;;;;;5501991;23;20506;-85
2023/01/16 11:54:26;;;;;;;1.77;0.70;;;7.70;1.00;;;;;;4898199;29;20231;-84
2023/01/16 11:57:22;;;;;;;2.40;1.58;;;7.70;1.00;;;;;;4882343;29;20187;-84
2023/01/16 12:00:19;;;;;;;0.90;0.60;;;7.70;21.80;;;;;;4894397;29;20214;-84
2023/01/16 12:03:02;;;;;;;1.30;0.80;;;7.80;20.40;;;;;;4880136;29;20467;-85
2023/01/16 12:05:57;;;;;;;1.20;0.90;;;7.80;1.00;;;;;;4860867;29;20251;-85
2023/01/16 12:08:58;;;;;;;0.98;0.70;;;7.80;1.00;;;;;;4879750;29;20791;-85
2023/01/16 12:11:24;;;;;;;1.83;0.77;;;7.80;1.00;;;;;;4865132;29;20198;-85
2023/01/16 12:16:58;;;;;;;1.20;0.70;;;7.80;1.00;;;;;;4879177;29;20231;-85
2023/01/16 12:19:53;;;;;;;3.00;0.83;;;7.80;1.00;;;;;;4878309;29;20192;-85
2023/01/16 12:22:45;;;;;;;2.45;1.00;;;7.80;1.00;;;;;;4865114;29;20531;-85
2023/01/16 12:25:28;;;;;;;1.67;0.70;;;7.80;1.00;;;;;;4874270;29;20640;-85
2023/01/16 12:28:11;;;;;;;2.33;0.80;;;7.80;1.00;;;;;;4878131;29;20432;-85
2023/01/16 12:31:41;;;;;;;1.58;0.80;;;7.70;99.90;;;;;;4878339;29;20232;-85
2023/01/16 12:34:16;;;;;;;1.33;0.65;;;7.60;1.00;;;;;;4844726;29;20192;-84
2023/01/16 12:37:00;;;;;;;3.25;1.20;;;7.50;1.00;;;;;;4880764;29;20672;-84
2023/01/16 12:39:44;;;;;;;1.80;0.88;;;7.50;99.90;;;;;;4869407;29;20207;-85
2023/01/16 12:45:22;;;;;;;1.40;0.95;;;7.50;99.90;;;;;;4876447;29;20191;-85
2023/01/16 12:47:54;;;;;;;1.50;0.85;;;7.50;99.90;;;;;;4870058;29;20179;-85
2023/01/16 12:50:57;;;;;;;1.35;0.70;;;7.50;99.90;;;;;;4871190;29;20212;-84
2023/01/16 12:53:29;;;;;;;10.95;1.20;;;7.50;99.90;;;;;;4873845;29;20677;-84
2023/01/16 12:56:22;;;;;;;1.40;0.60;;;7.60;99.90;;;;;;4856873;29;20255;-83
2023/01/16 12:59:00;;;;;;;1.10;0.77;;;7.60;99.90;;;;;;4873757;29;20199;-85
2023/01/16 13:01:32;;;;;;;1.27;0.70;;;7.60;99.90;;;;;;4858199;29;20250;-84
2023/01/16 13:04:36;;;;;;;1.90;0.75;;;7.60;1.00;;;;;;4881660;29;20246;-84
2023/01/16 13:07:05;;;;;;;1.58;1.15;;;7.50;99.90;;;;;;4865162;29;20328;-84
2023/01/16 13:13:20;;;;;;;1.55;0.70;;;7.40;1.00;;;;;;4874986;29;20196;-84
2023/01/16 13:13:24;;;;;;;1.00;0.70;;;7.40;1.00;;;;;;4886626;29;20544;-84
2023/01/16 13:16:26;;;;;;;1.10;0.70;;;7.30;1.00;;;;;;4901734;29;20574;-84
2023/01/16 13:19:13;;;;;;;1.80;0.70;;;7.20;99.90;;;;;;4879330;29;20189;-84
2023/01/16 13:22:01;;;;;;;1.05;0.63;;;7.20;1.00;;;;;;4875068;29;20183;-83
2023/01/16 13:24:43;;;;;;;0.90;0.60;;;7.20;99.90;;;;;;4882572;29;20687;-84
2023/01/16 13:27:17;;;;;;;1.08;0.73;;;7.20;1.00;;;;;;4890053;29;20243;-84
2023/01/16 13:29:59;;;;;;;4.35;0.90;;;7.20;1.00;;;;;;4883889;29;20204;-84
2023/01/16 13:32:40;;;;;;;1.48;0.80;;;7.20;99.90;;;;;;4882918;29;20188;-83
2023/01/16 13:35:20;;;;;;;2.90;0.60;;;7.10;70.10;;;;;;4881955;29;20184;-84
2023/01/16 13:38:24;;;;;;;1.00;0.60;;;7.10;1.00;;;;;;4865212;29;20276;-84
2023/01/16 13:41:11;;;;;;;1.45;0.70;;;7.00;99.90;;;;;;4864471;29;20203;-82
2023/01/16 13:46:47;;;;;;;1.40;0.70;;;6.80;37.20;;;;;;4878744;29;20296;-82
2023/01/16 13:49:24;;;;;;;0.90;0.60;;;6.60;99.90;;;;;;4881081;29;20188;-82
2023/01/16 13:51:52;;;;;;;1.52;0.80;;;6.60;99.90;;;;;;4874190;29;20218;-81
2023/01/16 13:54:40;;;;;;;3.75;0.93;;;6.50;1.00;;;;;;4874985;29;20195;-82
2023/01/16 13:57:20;;;;;;;1.00;0.77;;;6.40;1.00;;;;;;4898182;29;20223;-82
2023/01/16 13:59:47;;;;;;;1.55;0.80;;;6.40;1.00;;;;;;4901051;29;20319;-82
2023/01/16 14:02:25;;;;;;;12.05;0.93;;;6.30;1.00;;;;;;4884569;29;20194;-81
2023/01/16 14:05:21;;;;;;;6.93;1.20;;;6.30;1.00;;;;;;4885080;29;20199;-80
2023/01/16 14:10:56;;;;;;;2.05;0.93;;;6.10;1.00;;;;;;4880992;29;20229;-81
2023/01/16 14:13:31;;;;;;;12.40;4.15;;;6.10;1.00;;;;;;4880425;29;20184;-81
2023/01/16 14:18:56;;;;;;;3.70;0.95;;;6.10;1.00;;;;;;4880676;29;20720;-81
2023/01/16 14:21:28;;;;;;;1.70;1.60;;;6.10;1.00;;;;;;4879825;29;20290;-80
2023/01/16 14:24:02;;;;;;;1.63;0.80;;;6.10;1.00;;;;;;4865669;29;20204;-81
2023/01/16 14:26:38;;;;;;;1.10;0.80;;;6.10;1.00;;;;;;4880213;29;20179;-81
2023/01/16 14:29:34;;;;;;;13.88;2.60;;;6.10;1.00;;;;;;4878294;29;20227;-81
2023/01/16 14:32:10;;;;;;;2.28;0.90;;;6.00;1.00;;;;;;4877432;29;20226;-82
2023/01/16 14:34:54;;;;;;;6.05;1.45;;;6.00;1.00;;;;;;4879444;29;20223;-81
2023/01/16 14:37:30;;;;;;;1.55;0.90;;;6.00;1.00;;;;;;4885257;29;20191;-81
2023/01/16 14:40:01;;;;;;;2.35;0.73;;;6.00;1.00;;;;;;4867418;29;20203;-81
2023/01/16 14:56:57;;;;;;;3.38;1.40;;;6.00;1.00;;;;;;4877919;29;20216;-82
2023/01/16 14:59:32;;;;;;;1.67;1.30;;;5.90;1.00;;;;;;4880487;29;20188;-81
2023/01/16 15:02:19;;;;;;;4.47;1.85;;;5.90;1.00;;;;;;4878290;29;20183;-82
2023/01/16 15:04:57;;;;;;;1.83;1.17;;;5.80;1.00;;;;;;4875786;29;20188;-82
2023/01/16 15:07:30;;;;;;;1.48;1.30;;;5.90;1.00;;;;;;4873756;29;20198;-82
2023/01/16 15:10:03;;;;;;;1.90;1.45;;;5.90;1.00;;;;;;4891415;29;20207;-82
2023/01/16 15:12:38;;;;;;;2.92;2.72;;;6.00;1.00;;;;;;4857920;29;20231;-82
2023/01/16 15:15:04;;;;;;;4.88;2.00;;;6.00;1.00;;;;;;4877952;29;20310;-82
2023/01/16 15:23:36;;;;;;;2.83;1.98;;;6.00;1.00;;;;;;4866236;29;20198;-82
2023/01/16 15:26:11;;;;;;;2.13;1.58;;;6.00;1.00;;;;;;4887001;29;20175;-82
2023/01/16 15:28:59;;;;;;;2.70;2.30;;;6.00;1.00;;;;;;4860910;29;20625;-82
2023/01/16 15:31:34;;;;;;;3.20;1.70;;;6.00;1.00;;;;;;4859289;29;20564;-81
2023/01/16 15:34:21;;;;;;;4.25;1.88;;;6.00;1.00;;;;;;4870718;29;20211;-82
2023/01/16 15:36:48;;;;;;;2.97;1.55;;;6.00;1.00;;;;;;4890032;29;20561;-81
2023/01/16 15:39:43;;;;;;;2.55;1.70;;;5.90;1.00;;;;;;4884598;29;20183;-81
2023/01/16 15:48:15;;;;;;;8.13;1.98;;;5.90;1.00;;;;;;4875027;29;20203;-82
2023/01/16 15:51:00;;;;;;;2.55;1.60;;;5.90;1.00;;;;;;4883327;29;20230;-82
2023/01/16 15:53:40;;;;;;;2.58;1.70;;;5.80;1.00;;;;;;4883391;29;20629;-82
2023/01/16 15:56:18;;;;;;;5.13;1.77;;;5.80;1.00;;;;;;4880730;29;20315;-82
2023/01/16 15:58:47;;;;;;;2.60;2.10;;;5.80;1.00;;;;;;4882943;29;20195;-82
2023/01/16 16:01:13;;;;;;;4.20;2.50;;;5.80;1.00;;;;;;4900821;29;20187;-82
2023/01/16 16:03:44;;;;;;;7.28;2.50;;;5.90;1.00;;;;;;4893156;29;20199;-82
2023/01/16 16:06:13;;;;;;;4.20;2.75;;;5.90;1.00;;;;;;4865094;29;20187;-82
2023/01/16 16:08:44;;;;;;;3.10;1.95;;;5.90;1.00;;;;;;4882272;29;20294;-82
2023/01/16 16:17:56;;;;;;;3.05;1.60;;;5.90;1.00;;;;;;4880994;29;20231;-84
2023/01/16 16:20:36;;;;;;;4.20;1.38;;;5.90;1.00;;;;;;4860400;29;20211;-84
2023/01/16 16:23:02;;;;;;;4.13;1.85;;;5.90;1.00;;;;;;4862668;29;20198;-84
2023/01/16 16:25:46;;;;;;;2.57;1.47;;;5.90;1.00;;;;;;4878530;29;20195;-84
2023/01/16 16:28:38;;;;;;;3.08;1.80;;;5.90;1.00;;;;;;4878345;29;20206;-84
2023/01/16 16:31:32;;;;;;;3.25;2.17;;;5.90;1.00;;;;;;4868945;29;20262;-83
2023/01/16 16:34:06;;;;;;;6.85;3.75;;;5.90;1.00;;;;;;4875647;29;20506;-84
2023/01/16 16:36:43;;;;;;;3.92;2.38;;;5.90;1.00;;;;;;4879142;29;20203;-84
2023/01/16 16:39:38;;;;;;;3.55;2.63;;;5.90;1.00;;;;;;4871771;29;20186;-84
2023/01/16 16:42:25;;;;;;;4.07;2.58;;;6.00;1.00;;;;;;4879831;29;20199;-84
2023/01/16 16:45:06;;;;;;;4.47;3.70;;;6.00;1.00;;;;;;4882374;29;20708;-84
2023/01/16 16:47:43;;;;;;;3.25;2.95;;;6.00;1.00;;;;;;4883408;29;20254;-85
2023/01/16 16:50:27;;;;;;;3.83;3.00;;;6.00;1.00;;;;;;4878789;29;20593;-87
2023/01/16 16:53:13;;;;;;;8.20;4.20;;;6.10;1.00;;;;;;4879958;29;20617;-85
2023/01/16 16:55:44;;;;;;;12.15;8.48;;;6.10;1.00;;;;;;4888103;29;20205;-86
2023/01/16 16:58:22;;;;;;;10.40;9.23;;;6.10;1.00;;;;;;4875150;29;20314;-86
2023/01/16 17:00:47;;;;;;;10.52;5.78;;;6.00;1.00;;;;;;4881907;29;20290;-86
2023/01/16 17:03:16;;;;;;;7.30;5.30;;;6.10;1.00;;;;;;4881929;29;20286;-86
2023/01/16 17:05:42;;;;;;;6.80;4.70;;;6.00;1.00;;;;;;4865057;29;20427;-86
2023/01/16 17:08:17;;;;;;;8.63;6.07;;;6.00;1.00;;;;;;4881808;29;20195;-88
2023/01/16 17:10:48;;;;;;;8.70;5.40;;;6.00;1.00;;;;;;4859894;29;20211;-87